TimeMST,TemperatureF,Dew PointF,Humidity,Sea Level PressureIn,VisibilityMPH,Wind Direction,Wind SpeedMPH,Gust SpeedMPH,PrecipitationIn,Events,Conditions,WindDirDegrees,DateUTC
12:55 AM,23.0,19.9,88,30.37,10.0,North,5.8,-,N/A,,Clear,350,2013-11-13 07:55:00
1:55 AM,19.9,18.0,92,30.36,10.0,North,8.1,-,N/A,,Clear,10,2013-11-13 08:55:00
2:55 AM,21.9,19.0,89,30.34,10.0,North,9.2,-,N/A,,Clear,350,2013-11-13 09:55:00
3:55 AM,19.0,16.0,88,30.34,10.0,North,5.8,-,N/A,,Clear,360,2013-11-13 10:55:00
4:55 AM,18.0,16.0,92,30.36,10.0,North,8.1,-,N/A,,Clear,350,2013-11-13 11:55:00
5:55 AM,18.0,15.1,88,30.37,10.0,NNW,6.9,-,N/A,,Clear,330,2013-11-13 12:55:00
6:55 AM,19.9,15.1,81,30.36,10.0,NNW,6.9,-,N/A,,Clear,340,2013-11-13 13:55:00
7:55 AM,39.0,21.9,50,30.31,10.0,NNW,5.8,-,N/A,,Clear,330,2013-11-13 14:55:00
8:55 AM,50.0,17.1,27,30.24,10.0,WNW,10.4,-,N/A,,Clear,300,2013-11-13 15:55:00
9:55 AM,60.1,16.0,18,30.19,10.0,WNW,8.1,-,N/A,,Clear,300,2013-11-13 16:55:00
10:55 AM,64.0,7.0,11,30.17,10.0,WSW,4.6,-,N/A,,Clear,240,2013-11-13 17:55:00
11:55 AM,66.9,5.0,9,30.12,10.0,Calm,Calm,-,N/A,,Clear,0,2013-11-13 18:55:00
12:55 PM,66.9,5.0,9,30.08,10.0,WNW,6.9,-,N/A,,Clear,300,2013-11-13 19:55:00
1:55 PM,66.9,1.9,8,30.07,10.0,WNW,6.9,-,N/A,,Clear,290,2013-11-13 20:55:00
2:55 PM,66.9,1.9,8,30.05,10.0,Calm,Calm,-,N/A,,Clear,0,2013-11-13 21:55:00
3:55 PM,63.0,7.0,11,30.06,10.0,Calm,Calm,-,N/A,,Clear,0,2013-11-13 22:55:00
4:55 PM,42.1,14.0,32,30.14,10.0,North,8.1,-,N/A,,Clear,360,2013-11-13 23:55:00
5:55 PM,37.0,16.0,42,30.15,10.0,North,3.5,-,N/A,,Clear,350,2013-11-14 00:55:00
6:55 PM,30.9,14.0,50,30.16,10.0,NNW,3.5,-,N/A,,Clear,330,2013-11-14 01:55:00
7:55 PM,30.0,12.9,49,30.08,10.0,North,8.1,-,N/A,,Clear,360,2013-11-14 02:55:00
8:55 PM,28.0,14.0,56,30.03,10.0,Calm,Calm,-,N/A,,Clear,0,2013-11-14 03:55:00
9:55 PM,30.0,14.0,51,29.97,10.0,NNW,4.6,-,N/A,,Clear,330,2013-11-14 04:55:00
10:55 PM,28.0,14.0,56,29.95,10.0,NNW,4.6,-,N/A,,Clear,340,2013-11-14 05:55:00
11:55 PM,36.0,12.0,37,29.90,10.0,NNW,5.8,-,N/A,,Clear,340,2013-11-14 06:55:00